Argyle, Illinois
Current Conditions -  °F | °C
As of 9:54 PM on Thursday 27 Nov 2014 (Local Time) from KRFD Reporting Station
Broken Clouds Broken Clouds  
Wind Chill: -11°   Ceiling: 25000
Heat Index: -11°   Visibility: 10mi
Dew Point: -17°   Wind: 0mph
Humidity: 62%   Direction: NA
Pressure: 30.42"   Gusts: NA
Location:  42.3911°N, 88.9094°W
Report Text: KRFD 280354Z 00000KT 10SM SCT160 SCT200 BKN250 M11/M17 A3042 RMK AO2 SLP313 T11061167 $
Loading
Personal Weather Stations






























Interactive Weather Map New forecast layout! Learn more

10-Day Weather Forecast

Advertisements
Track Severe Weather on mobile